Terminal Aerodrome Forecast
Issued by NWS Billings, MT

Home | Current Version | Previous Version | Text Only | Print | Product List | Glossary On
Versions: 1 2 3 4 5 6 7 8 9 10 11 12 13 14 15 16 17
000
FTUS45 KBYZ 221732
TAFBIL
TAF
KBIL 221732Z 2218/2318 26006KT P6SM SCT070
     FM221900 33015G20KT P6SM SCT070
     FM230300 35010KT P6SM FEW080
     FM230900 27008KT P6SM SCT080
     FM231200 25006KT P6SM SCT100=

USA.gov is the U.S. government's official web portal to all federal, state and local government web resources and services.